createdAt,value
2019-05-20T00:00:32.871Z,17.30
2019-05-20T00:03:03.525Z,17.20
2019-05-20T00:05:34.316Z,17.30
2019-05-20T00:08:05.050Z,17.10
2019-05-20T00:10:35.692Z,17.00
2019-05-20T00:13:06.200Z,16.80
2019-05-20T00:15:36.992Z,16.90
2019-05-20T00:18:08.036Z,17.00
2019-05-20T00:20:38.683Z,17.00
2019-05-20T00:23:09.478Z,17.10
2019-05-20T00:25:40.057Z,17.20
2019-05-20T00:28:10.831Z,17.10
2019-05-20T00:30:41.421Z,17.10
2019-05-20T00:33:12.031Z,17.20
2019-05-20T00:35:42.592Z,17.20
2019-05-20T00:38:13.435Z,17.10
2019-05-20T00:40:44.072Z,17.10
2019-05-20T00:43:14.606Z,17.20
2019-05-20T00:45:45.046Z,17.20
2019-05-20T00:48:15.440Z,17.20
2019-05-20T00:50:45.737Z,17.20
2019-05-20T00:53:16.084Z,17.10
2019-05-20T00:55:46.372Z,17.10
2019-05-20T00:58:16.686Z,17.20
2019-05-20T01:00:46.999Z,17.10
2019-05-20T01:03:17.279Z,16.90
2019-05-20T01:05:47.658Z,16.90
2019-05-20T01:08:17.948Z,16.70
2019-05-20T01:10:48.262Z,16.60
2019-05-20T01:13:18.554Z,16.70
2019-05-20T01:15:48.854Z,16.70
2019-05-20T01:18:19.142Z,16.70
2019-05-20T01:20:50.049Z,16.70
2019-05-20T01:23:20.326Z,16.70
2019-05-20T01:25:50.659Z,16.70
2019-05-20T01:28:20.942Z,16.70
2019-05-20T01:30:51.240Z,16.50
2019-05-20T01:33:21.508Z,16.50
2019-05-20T01:35:51.812Z,16.50
2019-05-20T01:38:23.059Z,16.50
2019-05-20T01:40:53.372Z,16.50
2019-05-20T01:43:23.745Z,16.40
2019-05-20T01:45:54.055Z,16.30
2019-05-20T01:48:24.390Z,16.30
2019-05-20T01:50:54.728Z,16.20
2019-05-20T01:53:25.045Z,16.10
2019-05-20T01:55:55.351Z,16.10
2019-05-20T01:58:25.638Z,16.10
2019-05-20T02:00:55.970Z,16.10
2019-05-20T02:03:31.593Z,16.00
2019-05-20T02:05:58.184Z,15.90
2019-05-20T02:08:28.465Z,16.00
2019-05-20T02:10:58.764Z,16.00
2019-05-20T02:13:47.993Z,15.80
2019-05-20T02:16:19.033Z,15.80
2019-05-20T02:19:00.867Z,15.80
2019-05-20T02:21:31.182Z,15.90
2019-05-20T02:24:01.440Z,15.80
2019-05-20T02:26:31.814Z,15.90
2019-05-20T02:29:02.083Z,15.80
2019-05-20T02:31:32.388Z,15.70
2019-05-20T02:34:02.672Z,15.80
2019-05-20T02:36:32.985Z,15.60
2019-05-20T02:39:03.593Z,15.40
2019-05-20T02:41:34.221Z,15.30
2019-05-20T02:44:04.507Z,15.50
2019-05-20T02:46:34.808Z,15.40
2019-05-20T02:49:05.081Z,15.40
2019-05-20T02:51:35.382Z,15.40
2019-05-20T02:54:05.669Z,15.40
2019-05-20T02:56:36.006Z,15.40
2019-05-20T02:59:06.265Z,15.50
2019-05-20T03:01:36.602Z,15.40
2019-05-20T03:04:12.726Z,15.40
2019-05-20T03:06:38.853Z,15.40
2019-05-20T03:09:12.207Z,15.40
2019-05-20T03:11:41.080Z,15.40
2019-05-20T03:14:11.362Z,15.30
2019-05-20T03:16:41.665Z,15.30
2019-05-20T03:19:11.988Z,15.30
2019-05-20T03:21:42.360Z,15.20
2019-05-20T03:24:12.783Z,15.20
2019-05-20T03:26:43.059Z,15.20
2019-05-20T03:29:13.465Z,15.30
2019-05-20T03:31:43.763Z,15.30
2019-05-20T03:34:42.050Z,15.20
2019-05-20T03:36:46.010Z,15.10
2019-05-20T03:39:16.340Z,15.00
2019-05-20T03:41:46.613Z,15.00
2019-05-20T03:44:16.942Z,15.00
2019-05-20T03:46:47.247Z,15.00
2019-05-20T03:49:17.593Z,14.90
2019-05-20T03:51:47.949Z,14.80
2019-05-20T03:54:18.307Z,14.80
2019-05-20T03:56:48.671Z,14.90
2019-05-20T03:59:19.002Z,14.80
2019-05-20T04:01:49.316Z,14.70
2019-05-20T04:04:19.665Z,14.80
2019-05-20T04:06:49.985Z,14.90
2019-05-20T04:09:20.316Z,14.90
2019-05-20T04:11:50.596Z,15.00
2019-05-20T04:14:20.903Z,14.90
2019-05-20T04:16:52.316Z,14.80
2019-05-20T04:19:22.670Z,14.80
2019-05-20T04:21:52.994Z,14.90
2019-05-20T04:24:25.929Z,14.90
2019-05-20T04:27:00.767Z,14.90
2019-05-20T04:29:31.718Z,14.90
2019-05-20T04:32:02.998Z,14.90
2019-05-20T04:34:37.613Z,14.80
2019-05-20T04:37:17.031Z,14.90
2019-05-20T04:39:54.034Z,14.90
2019-05-20T04:42:24.306Z,14.70
2019-05-20T04:44:54.614Z,14.70
2019-05-20T04:47:25.847Z,14.70
2019-05-20T04:50:12.083Z,14.80
2019-05-20T04:52:43.932Z,14.80
2019-05-20T04:55:14.369Z,14.90
2019-05-20T04:57:44.752Z,14.90
2019-05-20T05:00:15.267Z,14.90
2019-05-20T05:02:45.596Z,14.90
2019-05-20T05:05:16.055Z,15.00
2019-05-20T05:07:46.337Z,15.00
2019-05-20T05:10:16.659Z,15.10
2019-05-20T05:12:46.957Z,15.00
2019-05-20T05:15:17.278Z,15.10
2019-05-20T05:17:47.606Z,15.10
2019-05-20T05:20:18.785Z,15.10
2019-05-20T05:22:49.297Z,15.20
2019-05-20T05:25:19.641Z,15.30
2019-05-20T05:27:49.953Z,15.40
2019-05-20T05:30:20.311Z,15.40
2019-05-20T05:32:50.621Z,15.50
2019-05-20T05:35:21.346Z,15.50
2019-05-20T05:37:51.726Z,15.50
2019-05-20T05:40:25.070Z,15.40
2019-05-20T05:42:55.379Z,15.50
2019-05-20T05:45:30.935Z,15.70
2019-05-20T05:48:01.743Z,15.90
2019-05-20T05:50:32.353Z,15.80
2019-05-20T05:53:05.752Z,15.80
2019-05-20T05:55:36.117Z,15.90
2019-05-20T05:58:08.743Z,16.10
2019-05-20T06:00:38.482Z,16.30
2019-05-20T06:03:08.809Z,16.30
2019-05-20T06:05:39.154Z,16.00
2019-05-20T06:08:09.492Z,16.00
2019-05-20T06:10:39.984Z,16.00
2019-05-20T06:13:10.285Z,16.20
2019-05-20T06:15:40.607Z,16.20
2019-05-20T06:18:10.965Z,16.30
2019-05-20T06:20:41.293Z,16.30
2019-05-20T06:23:11.609Z,16.20
2019-05-20T06:25:41.985Z,16.30
2019-05-20T06:28:12.299Z,16.20
2019-05-20T06:30:44.985Z,16.20
2019-05-20T06:33:15.366Z,16.10
2019-05-20T06:35:46.783Z,16.10
2019-05-20T06:38:38.576Z,16.00
2019-05-20T06:41:09.255Z,16.10
2019-05-20T06:43:39.643Z,16.20
2019-05-20T06:46:09.957Z,16.20
2019-05-20T06:48:40.281Z,16.10
2019-05-20T06:51:10.725Z,16.30
2019-05-20T06:53:41.213Z,16.20
2019-05-20T06:56:11.565Z,16.40
2019-05-20T06:58:41.845Z,16.30
2019-05-20T07:01:12.204Z,16.30
2019-05-20T07:03:42.530Z,16.40
2019-05-20T07:06:12.858Z,16.40
2019-05-20T07:08:43.169Z,16.30
2019-05-20T07:11:13.492Z,16.20
2019-05-20T07:13:43.838Z,16.20
2019-05-20T07:16:14.217Z,16.30
2019-05-20T07:18:44.702Z,16.00
2019-05-20T07:21:15.127Z,16.00
2019-05-20T07:23:45.552Z,16.00
2019-05-20T07:26:15.870Z,15.90
2019-05-20T07:28:46.188Z,16.00
2019-05-20T07:31:16.586Z,16.20
2019-05-20T07:33:46.875Z,16.10
2019-05-20T07:36:17.240Z,16.10
2019-05-20T07:38:47.526Z,15.80
2019-05-20T07:41:17.863Z,16.00
2019-05-20T07:43:48.367Z,16.00
2019-05-20T07:46:19.318Z,16.10
2019-05-20T07:48:50.219Z,16.00
2019-05-20T07:51:22.339Z,16.10
2019-05-20T07:53:52.856Z,16.10
2019-05-20T07:56:27.453Z,16.10
2019-05-20T07:59:00.687Z,16.10
2019-05-20T08:01:31.034Z,16.00
2019-05-20T08:04:01.330Z,15.80
2019-05-20T08:06:31.676Z,16.00
2019-05-20T08:09:02.022Z,16.20
2019-05-20T08:11:33.986Z,16.30
2019-05-20T08:14:04.547Z,16.30
2019-05-20T08:16:34.908Z,16.30
2019-05-20T08:19:05.300Z,16.00
2019-05-20T08:21:35.701Z,16.00
2019-05-20T08:24:06.042Z,16.20
2019-05-20T08:26:36.399Z,16.40
2019-05-20T08:29:06.792Z,16.60
2019-05-20T08:31:37.017Z,16.60
2019-05-20T08:34:07.362Z,16.60
2019-05-20T08:36:37.687Z,16.30
2019-05-20T08:39:08.212Z,16.70
2019-05-20T08:41:38.639Z,16.70
2019-05-20T08:44:09.031Z,16.90
2019-05-20T08:46:40.422Z,16.90
2019-05-20T08:49:11.653Z,16.60
2019-05-20T08:51:42.163Z,16.70
2019-05-20T08:54:12.503Z,17.10
2019-05-20T08:56:42.814Z,16.90
2019-05-20T08:59:13.153Z,17.40
2019-05-20T09:01:43.514Z,17.50
2019-05-20T09:04:13.866Z,17.80
2019-05-20T09:06:44.212Z,17.90
2019-05-20T09:09:14.567Z,18.20
2019-05-20T09:11:47.765Z,18.20
2019-05-20T09:14:17.927Z,18.30
2019-05-20T09:16:48.236Z,18.20
2019-05-20T09:19:18.662Z,18.30
2019-05-20T09:21:49.951Z,18.40
2019-05-20T09:24:20.301Z,18.30
2019-05-20T09:26:50.625Z,18.10
2019-05-20T09:29:21.052Z,18.10
2019-05-20T09:31:51.422Z,17.90
2019-05-20T09:34:21.791Z,17.90
2019-05-20T09:36:52.188Z,18.00
2019-05-20T09:39:22.541Z,17.80
2019-05-20T09:41:52.889Z,17.70
2019-05-20T09:44:23.310Z,17.60
2019-05-20T09:46:53.610Z,17.80
2019-05-20T09:49:24.005Z,18.00
2019-05-20T09:51:54.359Z,17.90
2019-05-20T09:54:24.720Z,18.20
2019-05-20T09:56:55.069Z,18.20
2019-05-20T09:59:40.302Z,18.40
2019-05-20T10:01:57.421Z,18.50
2019-05-20T10:04:27.814Z,18.50
2019-05-20T10:06:58.119Z,18.40
2019-05-20T10:09:28.607Z,18.50
2019-05-20T10:11:58.981Z,18.40
2019-05-20T10:14:29.462Z,18.50
2019-05-20T10:16:59.770Z,18.20
2019-05-20T10:19:30.168Z,17.70
2019-05-20T10:22:00.520Z,17.60
2019-05-20T10:24:30.859Z,17.40
2019-05-20T10:27:01.180Z,17.30
2019-05-20T10:29:31.558Z,17.50
2019-05-20T10:32:01.922Z,17.60
2019-05-20T10:34:32.286Z,17.30
2019-05-20T10:37:02.621Z,17.30
2019-05-20T10:39:32.955Z,17.40
2019-05-20T10:42:03.327Z,17.30
2019-05-20T10:44:33.706Z,17.30
2019-05-20T10:47:04.136Z,17.50
2019-05-20T10:49:34.486Z,17.70
2019-05-20T10:52:05.800Z,17.60
2019-05-20T10:54:36.192Z,17.70
2019-05-20T10:57:06.507Z,17.40
2019-05-20T10:59:37.927Z,17.40
2019-05-20T11:02:12.686Z,17.40
2019-05-20T11:04:44.125Z,17.10
2019-05-20T11:07:15.711Z,17.30
2019-05-20T11:09:46.029Z,17.40
2019-05-20T11:12:16.566Z,17.60
2019-05-20T11:14:48.311Z,17.70
2019-05-20T11:17:18.719Z,17.60
2019-05-20T11:19:49.172Z,17.60
2019-05-20T11:22:19.656Z,17.30
2019-05-20T11:24:51.339Z,17.40
2019-05-20T11:27:21.861Z,17.20
2019-05-20T11:29:52.570Z,17.40
2019-05-20T11:32:23.112Z,17.30
2019-05-20T11:34:53.643Z,17.20
2019-05-20T11:37:24.083Z,17.20
2019-05-20T11:39:54.583Z,17.40
2019-05-20T11:42:25.025Z,17.50
2019-05-20T11:44:55.393Z,17.60
2019-05-20T11:47:25.748Z,17.60
2019-05-20T11:49:56.292Z,17.60
2019-05-20T11:52:26.751Z,17.60
2019-05-20T11:54:57.122Z,17.70
2019-05-20T11:57:27.569Z,17.80
2019-05-20T12:00:03.091Z,18.00
2019-05-20T12:02:36.138Z,18.10
2019-05-20T12:05:07.678Z,18.10
2019-05-20T12:07:38.705Z,17.90
2019-05-20T12:10:09.781Z,18.00
2019-05-20T12:12:46.060Z,18.00
2019-05-20T12:15:16.675Z,18.20
2019-05-20T12:17:48.800Z,17.90
2019-05-20T12:20:19.578Z,17.90
2019-05-20T12:22:50.210Z,17.80
2019-05-20T12:25:21.061Z,17.70
2019-05-20T12:27:53.287Z,17.80
2019-05-20T12:30:24.073Z,17.60
2019-05-20T12:33:17.134Z,17.50
2019-05-20T12:35:26.636Z,17.30
2019-05-20T12:37:57.141Z,17.50
2019-05-20T12:40:27.528Z,17.40
2019-05-20T12:42:58.335Z,17.30
2019-05-20T12:45:28.803Z,17.40
2019-05-20T12:47:59.130Z,17.40
2019-05-20T12:50:29.466Z,17.50
2019-05-20T12:52:59.880Z,17.40
2019-05-20T12:55:30.431Z,17.50
2019-05-20T12:58:00.849Z,17.50
2019-05-20T13:00:31.406Z,17.60
2019-05-20T13:03:01.733Z,17.60
2019-05-20T13:05:32.605Z,17.70
2019-05-20T13:08:03.418Z,17.30
2019-05-20T13:10:36.769Z,17.50
2019-05-20T13:13:07.115Z,17.60
2019-05-20T13:15:37.588Z,17.80
2019-05-20T13:18:07.983Z,17.90
2019-05-20T13:20:38.367Z,17.90
2019-05-20T13:23:11.139Z,17.80
2019-05-20T13:25:40.953Z,17.70
2019-05-20T13:28:12.550Z,17.70
2019-05-20T13:30:44.452Z,17.80
2019-05-20T13:33:14.825Z,18.00
2019-05-20T13:35:45.175Z,18.00
2019-05-20T13:38:15.560Z,17.90
2019-05-20T13:40:47.379Z,18.20
2019-05-20T13:43:18.429Z,18.00
2019-05-20T13:45:49.342Z,17.90
2019-05-20T13:48:21.498Z,18.30
2019-05-20T13:50:52.254Z,18.30
2019-05-20T13:53:23.302Z,18.10
2019-05-20T13:55:53.981Z,18.30
2019-05-20T13:58:24.533Z,18.50
2019-05-20T14:00:55.046Z,18.60
2019-05-20T14:03:26.539Z,18.80
2019-05-20T14:05:56.951Z,18.50
2019-05-20T14:08:27.745Z,18.50
2019-05-20T14:11:04.089Z,18.40
2019-05-20T14:13:30.939Z,18.20
2019-05-20T14:16:01.750Z,18.10
2019-05-20T14:18:32.745Z,17.80
2019-05-20T14:21:03.761Z,17.50
2019-05-20T14:23:34.247Z,17.50
2019-05-20T14:26:05.316Z,17.40
2019-05-20T14:28:35.937Z,17.40
2019-05-20T14:31:07.126Z,17.50
2019-05-20T14:33:37.548Z,17.50
2019-05-20T14:36:08.151Z,17.70
2019-05-20T14:38:38.646Z,17.40
2019-05-20T14:41:21.012Z,17.40
2019-05-20T14:43:41.404Z,17.10
2019-05-20T14:46:12.104Z,17.10
2019-05-20T14:48:43.070Z,17.10
2019-05-20T14:51:13.504Z,17.20
2019-05-20T14:53:43.818Z,17.10
2019-05-20T14:56:14.510Z,17.10
2019-05-20T14:58:44.897Z,17.20
2019-05-20T15:01:15.246Z,17.30
2019-05-20T15:03:45.554Z,17.30
2019-05-20T15:06:16.853Z,17.20
2019-05-20T15:08:47.260Z,17.30
2019-05-20T15:11:17.664Z,17.40
2019-05-20T15:13:48.007Z,17.40
2019-05-20T15:16:18.309Z,17.40
2019-05-20T15:18:48.641Z,17.30
2019-05-20T15:21:19.011Z,17.20
2019-05-20T15:23:49.358Z,17.10
2019-05-20T15:26:19.665Z,17.20
2019-05-20T15:28:50.053Z,16.90
2019-05-20T15:31:20.398Z,17.10
2019-05-20T15:33:50.728Z,17.10
2019-05-20T15:36:21.843Z,17.20
2019-05-20T15:38:52.174Z,17.10
2019-05-20T15:41:22.457Z,17.10
2019-05-20T15:43:52.789Z,16.90
2019-05-20T15:46:23.087Z,17.00
2019-05-20T15:48:53.488Z,17.10
2019-05-20T15:51:23.771Z,16.90
2019-05-20T15:53:54.081Z,16.80
2019-05-20T15:56:24.407Z,16.70
2019-05-20T15:58:54.780Z,16.70
2019-05-20T16:01:25.075Z,16.50
2019-05-20T16:03:55.418Z,16.50
2019-05-20T16:06:25.803Z,16.40
2019-05-20T16:08:56.158Z,16.30
2019-05-20T16:11:26.781Z,16.30
2019-05-20T16:13:57.181Z,16.20
2019-05-20T16:16:27.578Z,16.40
2019-05-20T16:18:58.001Z,16.40
2019-05-20T16:21:31.582Z,16.30
2019-05-20T16:24:02.043Z,16.30
2019-05-20T16:26:32.348Z,16.30
2019-05-20T16:29:03.923Z,16.40
2019-05-20T16:31:34.251Z,16.40
2019-05-20T16:34:04.751Z,16.40
2019-05-20T16:36:35.081Z,16.60
2019-05-20T16:39:06.770Z,16.60
2019-05-20T16:41:37.092Z,16.40
2019-05-20T16:44:07.520Z,16.30
2019-05-20T16:46:37.828Z,16.40
2019-05-20T16:49:08.237Z,16.20
2019-05-20T16:51:38.759Z,16.20
2019-05-20T16:54:09.267Z,16.20
2019-05-20T16:56:39.656Z,16.00
2019-05-20T16:59:10.226Z,16.00
2019-05-20T17:01:46.267Z,15.90
2019-05-20T17:04:12.857Z,15.90
2019-05-20T17:06:43.282Z,15.90
2019-05-20T17:09:13.683Z,16.00
2019-05-20T17:11:44.047Z,16.00
2019-05-20T17:14:14.379Z,16.00
2019-05-20T17:16:44.698Z,15.90
2019-05-20T17:19:15.342Z,15.90
2019-05-20T17:21:46.125Z,16.00
2019-05-20T17:24:16.481Z,15.90
2019-05-20T17:26:46.876Z,16.10
2019-05-20T17:29:17.639Z,16.20
2019-05-20T17:31:50.555Z,16.20
2019-05-20T17:34:21.354Z,16.00
2019-05-20T17:36:51.707Z,16.10
2019-05-20T17:39:22.535Z,16.00
2019-05-20T17:41:53.306Z,16.10
2019-05-20T17:44:23.747Z,15.90
2019-05-20T17:46:54.124Z,16.00
2019-05-20T17:49:25.533Z,16.00
2019-05-20T17:51:55.781Z,16.20
2019-05-20T17:54:26.124Z,16.00
2019-05-20T17:56:56.514Z,16.00
2019-05-20T17:59:26.874Z,16.00
2019-05-20T18:01:57.179Z,16.10
2019-05-20T18:04:27.473Z,16.10
2019-05-20T18:06:57.915Z,16.00
2019-05-20T18:09:30.895Z,16.00
2019-05-20T18:12:01.213Z,16.20
2019-05-20T18:14:31.579Z,16.20
2019-05-20T18:17:01.854Z,16.10
2019-05-20T18:19:32.153Z,16.10
2019-05-20T18:22:02.497Z,16.10
2019-05-20T18:24:32.903Z,16.00
2019-05-20T18:27:03.551Z,16.00
2019-05-20T18:29:34.216Z,15.90
2019-05-20T18:32:04.534Z,15.90
2019-05-20T18:34:35.663Z,15.90
2019-05-20T18:37:06.057Z,15.90
2019-05-20T18:39:36.370Z,15.90
2019-05-20T18:42:06.925Z,15.80
2019-05-20T18:44:37.404Z,16.00
2019-05-20T18:47:07.726Z,16.00
2019-05-20T18:49:41.273Z,15.90
2019-05-20T18:52:13.811Z,15.90
2019-05-20T18:54:46.697Z,15.80
2019-05-20T18:57:17.254Z,15.90
2019-05-20T18:59:49.432Z,15.80
2019-05-20T19:02:19.959Z,15.80
2019-05-20T19:04:58.822Z,15.70
2019-05-20T19:07:29.228Z,15.70
2019-05-20T19:10:00.027Z,15.70
2019-05-20T19:12:31.401Z,15.60
2019-05-20T19:15:03.015Z,15.60
2019-05-20T19:17:33.721Z,15.70
2019-05-20T19:20:04.063Z,15.60
2019-05-20T19:22:35.354Z,15.60
2019-05-20T19:25:06.852Z,15.70
2019-05-20T19:27:37.689Z,15.60
2019-05-20T19:30:08.672Z,15.50
2019-05-20T19:32:39.044Z,15.60
2019-05-20T19:35:10.781Z,15.40
2019-05-20T19:37:41.868Z,15.50
2019-05-20T19:40:13.565Z,15.50
2019-05-20T19:42:44.212Z,15.60
2019-05-20T19:45:15.287Z,15.30
2019-05-20T19:47:48.201Z,15.40
2019-05-20T19:50:35.131Z,15.40
2019-05-20T19:53:23.699Z,15.50
2019-05-20T19:55:54.412Z,15.50
2019-05-20T19:58:24.802Z,15.50
2019-05-20T20:00:56.832Z,15.50
2019-05-20T20:03:27.728Z,15.40
2019-05-20T20:05:59.026Z,15.60
2019-05-20T20:08:30.994Z,15.60
2019-05-20T20:11:01.503Z,15.70
2019-05-20T20:13:34.695Z,15.50
2019-05-20T20:16:08.206Z,15.70
2019-05-20T20:18:52.406Z,15.70
2019-05-20T20:21:20.096Z,15.70
2019-05-20T20:23:50.893Z,15.80
2019-05-20T20:26:22.026Z,15.90
2019-05-20T20:28:52.491Z,15.90
2019-05-20T20:31:25.957Z,15.80
2019-05-20T20:33:58.237Z,15.80
2019-05-20T20:36:33.811Z,15.70
2019-05-20T20:39:05.443Z,15.80
2019-05-20T20:41:35.999Z,15.80
2019-05-20T20:44:08.389Z,15.70
2019-05-20T20:46:40.675Z,15.50
2019-05-20T20:49:14.645Z,15.70
2019-05-20T20:51:44.234Z,15.50
2019-05-20T20:54:15.375Z,15.40
2019-05-20T20:56:45.823Z,15.40
2019-05-20T20:59:16.218Z,15.40
2019-05-20T21:01:59.352Z,15.30
2019-05-20T21:04:29.970Z,15.30
2019-05-20T21:07:00.356Z,15.30
2019-05-20T21:09:31.455Z,15.20
2019-05-20T21:12:02.081Z,15.20
2019-05-20T21:14:32.379Z,15.20
2019-05-20T21:17:02.822Z,15.30
2019-05-20T21:19:33.194Z,15.10
2019-05-20T21:22:03.999Z,15.10
2019-05-20T21:24:34.425Z,15.10
2019-05-20T21:27:06.293Z,15.20
2019-05-20T21:29:36.691Z,15.10
2019-05-20T21:32:07.006Z,15.20
2019-05-20T21:34:37.293Z,15.30
2019-05-20T21:37:07.655Z,15.30
2019-05-20T21:39:38.002Z,15.40
2019-05-20T21:42:08.288Z,15.40
2019-05-20T21:44:38.600Z,15.30
2019-05-20T21:47:08.900Z,15.40
2019-05-20T21:49:40.249Z,15.40
2019-05-20T21:52:10.778Z,15.30
2019-05-20T21:54:41.390Z,15.40
2019-05-20T21:57:11.737Z,15.40
2019-05-20T21:59:42.031Z,15.40
2019-05-20T22:02:19.992Z,15.40
2019-05-20T22:04:50.983Z,15.40
2019-05-20T22:07:24.314Z,15.40
2019-05-20T22:09:54.690Z,15.40
2019-05-20T22:12:25.040Z,15.40
2019-05-20T22:14:55.404Z,15.40
2019-05-20T22:17:25.762Z,15.50
2019-05-20T22:19:56.093Z,15.50
2019-05-20T22:22:40.989Z,15.50
2019-05-20T22:25:11.331Z,15.40
2019-05-20T22:27:41.702Z,15.40
2019-05-20T22:30:12.299Z,15.50
2019-05-20T22:32:42.601Z,15.50
2019-05-20T22:35:13.037Z,15.40
2019-05-20T22:37:43.725Z,15.40
2019-05-20T22:40:14.185Z,15.40
2019-05-20T22:42:44.496Z,15.40
2019-05-20T22:45:14.779Z,15.40
2019-05-20T22:47:45.085Z,15.40
2019-05-20T22:50:15.439Z,15.40
2019-05-20T22:52:45.689Z,15.30
2019-05-20T22:55:16.013Z,15.40
2019-05-20T22:57:57.301Z,15.30
2019-05-20T23:00:27.633Z,15.30
2019-05-20T23:02:57.932Z,15.40
2019-05-20T23:05:28.245Z,15.20
2019-05-20T23:07:58.741Z,15.30
2019-05-20T23:10:32.605Z,15.10
2019-05-20T23:13:09.700Z,15.10
2019-05-20T23:15:40.335Z,15.20
2019-05-20T23:18:10.653Z,15.20
2019-05-20T23:20:40.945Z,15.20
2019-05-20T23:23:11.328Z,15.30
2019-05-20T23:25:41.632Z,15.30
2019-05-20T23:28:11.936Z,15.30
2019-05-20T23:30:42.212Z,15.40
2019-05-20T23:33:12.520Z,15.20
2019-05-20T23:35:42.811Z,15.30
2019-05-20T23:38:13.145Z,15.20
2019-05-20T23:40:43.470Z,15.20
2019-05-20T23:43:13.810Z,15.30
2019-05-20T23:45:44.238Z,15.30
2019-05-20T23:48:26.431Z,15.40
2019-05-20T23:50:56.710Z,15.20
2019-05-20T23:53:27.010Z,15.20
2019-05-20T23:55:57.317Z,15.20
2019-05-20T23:58:27.680Z,15.30
